Time;durP1;ratioP1;P1;durP2;ratioP2;P2;SDS_P1;SDS_P2;PMS_P1;PMS_P2;Temp;Humidity;BMP_temperature;BMP_pressure;BME280_temperature;BME280_humidity;BME280_pressure;Samples;Min_cycle;Max_cycle;Signal;HPM_P1;HPM_P2
2023/12/28 00:03:06;;;;;;;16.20;5.40;;;;;;;0.58;100.00;99820.04;109000;1260;74399;-60
2023/12/28 00:05:53;;;;;;;14.70;5.20;;;;;;;0.58;100.00;99815.51;109071;1259;68913;-61
2023/12/28 00:08:41;;;;;;;16.10;4.40;;;;;;;0.60;100.00;99814.37;108947;1258;72559;-60
2023/12/28 00:11:32;;;;;;;16.10;4.00;;;;;;;0.60;100.00;99808.80;109105;1259;57238;-60
2023/12/28 00:14:20;;;;;;;16.40;4.40;;;;;;;0.62;100.00;99798.75;109134;1258;61063;-65
2023/12/28 00:17:08;;;;;;;17.50;4.90;;;;;;;0.63;100.00;99788.59;109103;1259;72725;-60
2023/12/28 00:19:56;;;;;;;14.20;4.00;;;;;;;0.61;100.00;99784.12;109118;1260;68180;-61
2023/12/28 00:22:44;;;;;;;21.10;5.10;;;;;;;0.60;100.00;99798.14;109030;1259;73964;-61
2023/12/28 00:25:31;;;;;;;19.30;4.40;;;;;;;0.60;100.00;99794.80;109130;1259;58651;-60
2023/12/28 00:28:19;;;;;;;17.30;4.60;;;;;;;0.62;100.00;99787.23;109141;1260;59026;-61
2023/12/28 00:31:09;;;;;;;14.10;4.30;;;;;;;0.62;100.00;99771.15;109056;1261;72062;-61
2023/12/28 00:33:57;;;;;;;15.10;4.30;;;;;;;0.63;100.00;99760.48;109042;1257;66840;-59
2023/12/28 00:36:45;;;;;;;17.00;4.10;;;;;;;0.63;100.00;99755.73;109091;1260;72772;-60
2023/12/28 00:39:34;;;;;;;15.70;4.30;;;;;;;0.62;100.00;99757.86;107569;1261;1002330;-59
2023/12/28 00:42:22;;;;;;;16.40;5.30;;;;;;;0.62;100.00;99765.55;109117;1260;61503;-59
2023/12/28 00:45:10;;;;;;;14.60;4.00;;;;;;;0.63;100.00;99776.38;109042;1260;73275;-60
2023/12/28 00:47:58;;;;;;;11.70;3.90;;;;;;;0.64;100.00;99779.30;109137;1258;67951;-60
2023/12/28 00:50:46;;;;;;;18.90;4.90;;;;;;;0.65;100.00;99777.31;109025;1259;70509;-61
2023/12/28 00:53:34;;;;;;;18.50;5.30;;;;;;;0.68;100.00;99767.93;109118;1259;57266;-59
2023/12/28 00:56:22;;;;;;;16.50;4.60;;;;;;;0.68;100.00;99761.27;109069;1259;60205;-60
2023/12/28 00:59:11;;;;;;;15.00;4.30;;;;;;;0.69;100.00;99763.38;109104;1259;71483;-60
2023/12/28 01:01:59;;;;;;;16.30;4.50;;;;;;;0.71;100.00;99751.59;109091;1259;68846;-61
2023/12/28 01:04:47;;;;;;;17.50;4.90;;;;;;;0.74;100.00;99736.44;109008;1260;73591;-61
2023/12/28 01:07:34;;;;;;;16.20;5.20;;;;;;;0.77;100.00;99734.40;109031;1259;57254;-60
2023/12/28 01:10:22;;;;;;;18.90;5.00;;;;;;;0.76;100.00;99734.25;109142;1260;60418;-60
2023/12/28 01:13:10;;;;;;;16.80;5.00;;;;;;;0.73;100.00;99736.32;109030;1258;73581;-61
2023/12/28 01:15:58;;;;;;;13.20;4.60;;;;;;;0.70;100.00;99742.72;109093;1260;66228;-60
2023/12/28 01:18:46;;;;;;;14.90;4.50;;;;;;;0.66;100.00;99735.73;109034;1259;71277;-60
2023/12/28 01:21:37;;;;;;;19.00;5.20;;;;;;;0.59;100.00;99742.31;109130;1260;58704;-60
2023/12/28 01:24:26;;;;;;;16.90;6.60;;;;;;;0.52;100.00;99739.95;109060;1259;60200;-61
2023/12/28 01:27:14;;;;;;;21.90;6.90;;;;;;;0.45;100.00;99731.36;109020;1260;73705;-61
2023/12/28 01:30:02;;;;;;;24.70;7.30;;;;;;;0.37;100.00;99715.44;108299;1260;1002053;-60
2023/12/28 01:32:52;;;;;;;22.40;6.80;;;;;;;0.30;100.00;99696.34;109127;1260;72623;-60
2023/12/28 01:35:41;;;;;;;21.10;7.20;;;;;;;0.22;100.00;99698.42;109055;1259;57333;-60
2023/12/28 01:38:29;;;;;;;19.00;6.80;;;;;;;0.19;100.00;99684.10;109014;1260;60000;-58
2023/12/28 01:41:17;;;;;;;20.30;6.90;;;;;;;0.16;100.00;99681.73;109052;1259;71755;-59
2023/12/28 01:44:05;;;;;;;17.70;6.50;;;;;;;0.15;100.00;99669.23;109104;1260;67523;-60
2023/12/28 01:46:53;;;;;;;18.90;6.60;;;;;;;0.14;100.00;99655.50;109036;1260;71093;-60
2023/12/28 01:49:40;;;;;;;21.40;6.90;;;;;;;0.13;100.00;99650.47;109126;1261;58774;-60
2023/12/28 01:52:28;;;;;;;23.90;7.50;;;;;;;0.12;100.00;99634.27;108814;1264;60629;-59
2023/12/28 01:55:17;;;;;;;22.30;7.40;;;;;;;0.09;100.00;99632.31;108754;1263;71882;-61
2023/12/28 01:58:04;;;;;;;20.20;6.50;;;;;;;0.07;100.00;99630.13;108596;1263;66918;-59
2023/12/28 02:00:56;;;;;;;20.60;7.10;;;;;;;0.05;100.00;99636.31;108796;1263;71480;-62
2023/12/28 02:03:45;;;;;;;17.60;5.90;;;;;;;0.02;100.00;99624.23;108710;1267;58237;-60
2023/12/28 02:06:33;;;;;;;16.90;5.80;;;;;;;0.04;100.00;99616.64;108860;1264;58818;-60
2023/12/28 02:09:21;;;;;;;19.20;6.60;;;;;;;0.03;100.00;99606.23;108793;1262;73308;-60
2023/12/28 02:12:09;;;;;;;20.70;6.50;;;;;;;0.03;100.00;99592.27;108125;1262;1002649;-60
2023/12/28 02:14:57;;;;;;;25.90;8.60;;;;;;;0.01;100.00;99572.48;108861;1263;73949;-61
2023/12/28 02:18:15;;;;;;;19.40;6.70;;;;;;;-0.00;100.00;99564.83;108736;1263;59502;-60
2023/12/28 02:21:06;;;;;;;18.00;6.50;;;;;;;0.03;100.00;99559.66;108804;1264;58432;-61
2023/12/28 02:23:53;;;;;;;21.70;6.50;;;;;;;0.05;100.00;99546.14;109002;1257;73099;-62
2023/12/28 02:26:43;;;;;;;23.70;8.00;;;;;;;0.05;100.00;99532.52;109176;1257;67917;-60
2023/12/28 02:29:31;;;;;;;20.60;7.00;;;;;;;0.11;100.00;99532.95;109171;1257;72402;-60
2023/12/28 02:32:28;;;;;;;16.70;6.40;;;;;;;0.13;100.00;99534.27;109203;1257;57387;-60
2023/12/28 02:35:24;;;;;;;22.90;6.70;;;;;;;0.13;100.00;99516.11;109024;1257;61789;-60
2023/12/28 02:38:16;;;;;;;20.60;6.40;;;;;;;0.14;100.00;99513.84;109050;1257;71834;-61
2023/12/28 02:41:04;;;;;;;16.20;6.10;;;;;;;0.13;100.00;99511.76;108972;1257;67798;-60
2023/12/28 02:43:53;;;;;;;20.70;7.20;;;;;;;0.13;100.00;99511.05;109094;1257;72506;-60
2023/12/28 02:46:41;;;;;;;17.90;7.20;;;;;;;0.13;100.00;99510.20;109069;1257;58419;-59
2023/12/28 02:49:29;;;;;;;21.20;7.10;;;;;;;0.14;100.00;99509.12;109111;1257;58919;-61
2023/12/28 02:52:17;;;;;;;27.60;9.30;;;;;;;0.15;100.00;99508.17;109077;1258;73147;-59
2023/12/28 02:55:05;;;;;;;23.50;8.00;;;;;;;0.16;100.00;99496.96;109174;1257;67705;-61
2023/12/28 02:57:59;;;;;;;20.80;7.90;;;;;;;0.16;100.00;99487.54;108959;1257;72839;-60
2023/12/28 03:00:48;;;;;;;23.20;8.50;;;;;;;0.12;100.00;99481.63;109054;1261;57365;-60
2023/12/28 03:03:36;;;;;;;23.20;7.70;;;;;;;0.17;100.00;99480.17;109081;1258;58710;-60
2023/12/28 03:06:24;;;;;;;23.70;8.90;;;;;;;0.15;100.00;99473.46;109192;1256;71905;-60
2023/12/28 03:09:12;;;;;;;21.80;8.80;;;;;;;0.15;100.00;99471.36;109086;1260;66870;-63
2023/12/28 03:12:01;;;;;;;27.00;9.70;;;;;;;0.15;100.00;99468.23;109222;1257;71413;-61
2023/12/28 03:14:49;;;;;;;20.30;7.60;;;;;;;0.16;100.00;99465.05;109093;1258;57560;-60
2023/12/28 03:17:36;;;;;;;22.80;9.10;;;;;;;0.17;100.00;99459.95;109092;1257;61305;-60
2023/12/28 03:20:25;;;;;;;25.90;10.30;;;;;;;0.16;100.00;99457.56;109199;1257;73056;-60
2023/12/28 03:23:13;;;;;;;26.50;10.30;;;;;;;0.15;100.00;99455.13;109122;1257;67649;-61
2023/12/28 03:26:01;;;;;;;26.50;9.40;;;;;;;0.16;100.00;99450.07;109076;1257;70544;-61
2023/12/28 03:28:48;;;;;;;26.30;10.10;;;;;;;0.14;100.00;99441.39;109138;1257;58670;-60
2023/12/28 03:31:40;;;;;;;24.30;9.00;;;;;;;0.12;100.00;99431.73;109110;1258;59046;-60
2023/12/28 03:34:30;;;;;;;21.90;8.90;;;;;;;0.12;100.00;99417.22;108943;1261;70602;-59
2023/12/28 03:37:17;;;;;;;24.90;9.30;;;;;;;0.09;100.00;99400.65;109198;1257;67629;-59
2023/12/28 03:40:06;;;;;;;22.70;9.90;;;;;;;0.14;100.00;99398.52;109073;1257;72415;-60
2023/12/28 03:42:53;;;;;;;23.60;9.50;;;;;;;0.14;100.00;99388.37;109141;1257;57431;-59
2023/12/28 03:45:41;;;;;;;26.60;10.30;;;;;;;0.15;100.00;99377.16;109217;1257;61063;-60
2023/12/28 03:48:29;;;;;;;25.60;10.50;;;;;;;0.16;100.00;99370.85;109175;1257;72856;-60
2023/12/28 03:51:18;;;;;;;30.80;11.10;;;;;;;0.16;100.00;99369.80;109224;1257;68952;-60
2023/12/28 03:54:09;;;;;;;28.80;10.00;;;;;;;0.15;100.00;99350.28;109010;1257;73673;-60
2023/12/28 03:56:57;;;;;;;30.40;11.10;;;;;;;0.16;100.00;99332.96;109007;1257;59701;-60
2023/12/28 03:59:45;;;;;;;26.60;10.50;;;;;;;0.15;100.00;99319.40;109089;1257;60330;-60
2023/12/28 04:02:32;;;;;;;24.30;11.40;;;;;;;0.16;100.00;99297.39;108953;1257;71565;-61
2023/12/28 04:05:22;;;;;;;25.10;9.60;;;;;;;0.16;100.00;99289.52;108974;1258;68111;-60
2023/12/28 04:08:10;;;;;;;23.40;9.80;;;;;;;0.17;100.00;99284.77;108705;1260;180215;-59
2023/12/28 04:10:58;;;;;;;24.80;9.80;;;;;;;0.19;100.00;99268.47;109046;1258;58721;-60
2023/12/28 04:13:46;;;;;;;30.40;10.30;;;;;;;0.21;100.00;99263.33;108976;1257;58788;-61
2023/12/28 04:16:33;;;;;;;26.60;10.60;;;;;;;0.21;100.00;99260.34;109081;1259;73913;-61
2023/12/28 04:19:21;;;;;;;29.00;10.90;;;;;;;0.22;100.00;99263.60;109058;1258;68987;-60
2023/12/28 04:22:09;;;;;;;23.90;10.00;;;;;;;0.23;100.00;99252.58;108981;1257;71531;-62
2023/12/28 04:24:57;;;;;;;23.30;9.60;;;;;;;0.25;100.00;99240.09;109094;1257;57288;-60
2023/12/28 04:27:44;;;;;;;25.60;9.20;;;;;;;0.26;100.00;99228.33;109001;1260;60315;-62
2023/12/28 04:30:33;;;;;;;26.00;9.50;;;;;;;0.27;100.00;99220.26;109086;1259;72104;-62
2023/12/28 04:33:21;;;;;;;24.80;9.50;;;;;;;0.26;100.00;99203.77;109050;1257;67874;-61
2023/12/28 04:36:09;;;;;;;22.40;9.80;;;;;;;0.22;100.00;99199.91;108982;1257;71326;-61
2023/12/28 04:38:57;;;;;;;22.90;9.10;;;;;;;0.20;100.00;99195.30;108886;1257;57591;-61
2023/12/28 04:41:45;;;;;;;19.30;7.70;;;;;;;0.16;100.00;99188.16;108228;1257;1002364;-62
2023/12/28 04:44:38;;;;;;;23.40;9.70;;;;;;;0.15;100.00;99178.46;109010;1257;73803;-62
2023/12/28 04:47:27;;;;;;;25.60;9.70;;;;;;;0.13;100.00;99175.23;109016;1260;68141;-60
2023/12/28 04:50:15;;;;;;;23.60;9.60;;;;;;;0.13;100.00;99165.61;109041;1258;72469;-61
2023/12/28 04:53:03;;;;;;;20.30;7.30;;;;;;;0.16;100.00;99159.55;108340;1257;1002183;-61
2023/12/28 04:55:51;;;;;;;29.20;9.70;;;;;;;0.15;100.00;99158.23;109096;1257;59309;-60
2023/12/28 04:58:39;;;;;;;22.30;9.80;;;;;;;0.16;100.00;99160.11;109143;1257;72852;-61
2023/12/28 05:01:31;;;;;;;27.40;8.80;;;;;;;0.16;100.00;99133.05;109107;1257;67980;-61
2023/12/28 05:04:19;;;;;;;23.70;9.10;;;;;;;0.17;100.00;99117.32;109079;1257;73437;-62
2023/12/28 05:07:07;;;;;;;22.40;9.30;;;;;;;0.18;100.00;99103.11;109207;1257;57305;-62
2023/12/28 05:09:55;;;;;;;24.90;9.50;;;;;;;0.19;100.00;99094.56;109149;1257;61135;-60
2023/12/28 05:12:43;;;;;;;23.90;9.30;;;;;;;0.18;100.00;99077.30;109133;1257;72990;-61
2023/12/28 05:15:32;;;;;;;24.10;8.40;;;;;;;0.20;100.00;99069.38;109068;1257;66812;-61
2023/12/28 05:18:20;;;;;;;23.60;8.50;;;;;;;0.19;100.00;99050.58;109116;1257;74065;-60
2023/12/28 05:21:08;;;;;;;24.50;8.40;;;;;;;0.21;100.00;99043.65;109228;1257;57339;-61
2023/12/28 05:23:56;;;;;;;23.70;9.00;;;;;;;0.22;100.00;99048.30;109126;1257;60127;-61
2023/12/28 05:26:44;;;;;;;21.60;7.90;;;;;;;0.25;100.00;99071.21;109204;1257;73573;-61
2023/12/28 05:29:31;;;;;;;18.70;7.80;;;;;;;0.25;100.00;99080.25;109175;1257;68777;-59
2023/12/28 05:32:19;;;;;;;18.40;7.40;;;;;;;0.26;100.00;99085.27;109183;1257;71408;-61
2023/12/28 05:35:07;;;;;;;22.00;8.60;;;;;;;0.26;100.00;99078.63;109059;1257;59768;-59
2023/12/28 05:37:55;;;;;;;23.70;8.10;;;;;;;0.29;100.00;99080.05;109186;1257;61117;-61
2023/12/28 05:40:44;;;;;;;22.20;8.00;;;;;;;0.32;100.00;99076.61;109189;1257;73199;-60
2023/12/28 05:43:32;;;;;;;20.70;8.20;;;;;;;0.34;100.00;99076.45;109154;1257;67774;-62
2023/12/28 05:46:20;;;;;;;18.60;6.80;;;;;;;0.34;100.00;99073.33;109094;1257;73238;-61
2023/12/28 05:49:07;;;;;;;19.90;8.60;;;;;;;0.33;100.00;99079.33;109069;1257;57269;-61
2023/12/28 05:51:55;;;;;;;24.80;9.70;;;;;;;0.34;100.00;99075.63;109115;1257;59008;-62
2023/12/28 05:54:43;;;;;;;19.90;8.30;;;;;;;0.36;100.00;99072.02;109188;1257;73991;-62
2023/12/28 05:57:31;;;;;;;22.50;8.90;;;;;;;0.39;100.00;99061.59;109167;1257;67924;-61
2023/12/28 06:00:19;;;;;;;21.10;8.00;;;;;;;0.42;100.00;99064.52;109010;1257;71577;-64
2023/12/28 06:03:07;;;;;;;22.90;8.50;;;;;;;0.48;100.00;99067.22;109202;1257;58782;-61
2023/12/28 06:05:55;;;;;;;23.30;10.00;;;;;;;0.54;100.00;99074.79;109187;1257;61330;-60
2023/12/28 06:08:43;;;;;;;21.60;8.70;;;;;;;0.59;100.00;99070.68;109188;1257;73609;-61
2023/12/28 06:11:30;;;;;;;20.80;6.90;;;;;;;0.64;100.00;99063.39;109054;1260;67785;-61
2023/12/28 06:14:18;;;;;;;17.70;6.50;;;;;;;0.71;100.00;99057.45;108965;1257;73687;-60
2023/12/28 06:17:06;;;;;;;21.60;8.50;;;;;;;0.78;100.00;99046.09;109036;1256;57537;-61
2023/12/28 06:19:54;;;;;;;18.00;7.50;;;;;;;0.86;100.00;99041.10;109177;1257;58739;-61
2023/12/28 06:22:42;;;;;;;20.40;7.50;;;;;;;0.93;100.00;99043.17;108400;1256;1002697;-62
2023/12/28 06:25:30;;;;;;;19.90;7.70;;;;;;;1.01;100.00;99026.50;109201;1257;67807;-60
2023/12/28 06:28:18;;;;;;;21.80;8.60;;;;;;;1.08;100.00;99022.83;109123;1256;73208;-61
2023/12/28 06:31:06;;;;;;;19.40;6.80;;;;;;;1.15;100.00;99017.88;109171;1257;59599;-62
2023/12/28 06:33:56;;;;;;;20.20;9.00;;;;;;;1.22;100.00;99018.39;109155;1257;60314;-60
2023/12/28 06:36:44;;;;;;;15.50;6.90;;;;;;;1.27;100.00;99023.34;109165;1257;74448;-61
2023/12/28 06:39:32;;;;;;;17.30;7.70;;;;;;;1.30;100.00;99017.75;109151;1257;67709;-61
2023/12/28 06:42:19;;;;;;;19.20;7.60;;;;;;;1.29;100.00;99006.94;109124;1257;70127;-60
2023/12/28 06:45:08;;;;;;;19.90;7.50;;;;;;;1.36;100.00;99009.73;109126;1257;57372;-60
2023/12/28 06:47:55;;;;;;;21.50;8.50;;;;;;;1.35;100.00;99004.38;109141;1257;59168;-60
2023/12/28 06:50:43;;;;;;;18.60;7.30;;;;;;;1.41;100.00;99021.14;109125;1257;73049;-61
2023/12/28 06:53:31;;;;;;;18.30;8.10;;;;;;;1.44;100.00;99021.52;109171;1257;67610;-61
2023/12/28 06:56:19;;;;;;;20.60;7.80;;;;;;;1.47;100.00;99024.13;109067;1257;71527;-61
2023/12/28 06:59:07;;;;;;;18.40;7.70;;;;;;;1.49;100.00;99031.70;109149;1256;57854;-61
2023/12/28 07:01:55;;;;;;;21.90;8.70;;;;;;;1.54;100.00;99034.96;109197;1257;61326;-61
2023/12/28 07:04:43;;;;;;;16.90;6.80;;;;;;;1.56;100.00;99035.54;109148;1256;72163;-61
2023/12/28 07:07:30;;;;;;;19.70;8.80;;;;;;;1.60;100.00;99032.86;109180;1257;67624;-61
2023/12/28 07:10:18;;;;;;;18.10;7.40;;;;;;;1.64;100.00;99031.19;109180;1256;71254;-61
2023/12/28 07:13:06;;;;;;;17.10;7.20;;;;;;;1.68;100.00;99027.86;109087;1256;57217;-62
2023/12/28 07:15:53;;;;;;;18.10;7.80;;;;;;;1.72;100.00;99040.94;109108;1257;58988;-63
2023/12/28 07:18:45;;;;;;;17.50;7.70;;;;;;;1.73;100.00;99040.88;109144;1257;71495;-61
2023/12/28 07:21:33;;;;;;;18.10;7.80;;;;;;;1.77;100.00;99054.63;109193;1257;66490;-60
2023/12/28 07:24:21;;;;;;;21.30;7.20;;;;;;;1.80;100.00;99061.26;109167;1257;71843;-60
2023/12/28 07:27:09;;;;;;;19.20;7.60;;;;;;;1.81;100.00;99058.55;109014;1257;58474;-62
2023/12/28 07:29:57;;;;;;;21.80;8.10;;;;;;;1.85;100.00;99057.65;109085;1257;60024;-61
2023/12/28 07:32:45;;;;;;;21.00;8.70;;;;;;;1.89;100.00;99055.86;109165;1257;71657;-59
2023/12/28 07:35:33;;;;;;;20.50;8.00;;;;;;;1.95;100.00;99053.42;109135;1257;68036;-59
2023/12/28 07:38:20;;;;;;;20.30;7.90;;;;;;;2.03;100.00;99055.58;109167;1257;73772;-62
2023/12/28 07:41:08;;;;;;;19.90;7.90;;;;;;;2.09;100.00;99057.65;109185;1257;57650;-60
2023/12/28 07:43:55;;;;;;;15.70;6.90;;;;;;;2.14;100.00;99057.73;109133;1257;61733;-61
2023/12/28 07:46:43;;;;;;;17.30;7.10;;;;;;;2.17;100.00;99059.80;109140;1256;72906;-61
2023/12/28 07:49:31;;;;;;;16.90;7.70;;;;;;;2.21;100.00;99055.70;109219;1257;66680;-62
2023/12/28 07:52:19;;;;;;;20.60;8.60;;;;;;;2.26;100.00;99055.64;109121;1257;72913;-62
2023/12/28 07:55:07;;;;;;;17.00;7.30;;;;;;;2.30;100.00;99057.13;109154;1257;59241;-61
2023/12/28 07:57:55;;;;;;;18.60;8.30;;;;;;;2.33;100.00;99051.36;109192;1257;60834;-61
2023/12/28 08:00:43;;;;;;;21.10;7.70;;;;;;;2.36;100.00;99042.77;108985;1257;73857;-64
2023/12/28 08:03:31;;;;;;;16.80;7.50;;;;;;;2.38;100.00;99044.02;108996;1257;67880;-60
2023/12/28 08:06:19;;;;;;;17.60;6.90;;;;;;;2.42;100.00;99039.81;109051;1257;72431;-61
2023/12/28 08:09:08;;;;;;;21.90;8.40;;;;;;;2.44;100.00;99044.93;109171;1257;58872;-61
2023/12/28 08:11:56;;;;;;;21.00;8.00;;;;;;;2.47;100.00;99056.86;109061;1257;58991;-62
2023/12/28 08:14:43;;;;;;;18.60;7.50;;;;;;;2.49;100.00;99066.85;109222;1257;72754;-62
2023/12/28 08:17:31;;;;;;;21.00;8.00;;;;;;;2.51;100.00;99053.77;109173;1257;66642;-61
2023/12/28 08:20:19;;;;;;;20.80;7.80;;;;;;;2.54;100.00;99056.05;109199;1256;72706;-63
2023/12/28 08:23:07;;;;;;;15.30;6.30;;;;;;;2.55;100.00;99065.23;109171;1257;57326;-61
2023/12/28 08:26:04;;;;;;;15.90;7.20;;;;;;;2.57;100.00;99074.11;109152;1257;60446;-61
2023/12/28 08:28:52;;;;;;;16.90;7.20;;;;;;;2.58;100.00;99070.33;109190;1256;71311;-64
2023/12/28 08:31:40;;;;;;;16.60;6.60;;;;;;;2.60;100.00;99071.12;109221;1257;67440;-61
2023/12/28 08:34:33;;;;;;;16.60;6.50;;;;;;;2.64;100.00;99063.69;108993;1257;71693;-62
2023/12/28 08:37:22;;;;;;;17.50;7.10;;;;;;;2.69;100.00;99059.66;109060;1257;57742;-61
2023/12/28 08:40:10;;;;;;;16.40;7.20;;;;;;;2.77;100.00;99066.90;109159;1257;58701;-62
2023/12/28 08:42:58;;;;;;;18.20;6.50;;;;;;;2.83;100.00;99070.91;109147;1256;72365;-61
2023/12/28 08:45:46;;;;;;;16.00;6.50;;;;;;;2.90;100.00;99075.60;109206;1257;68713;-60
2023/12/28 08:48:33;;;;;;;17.50;7.00;;;;;;;2.95;100.00;99075.61;109166;1257;72400;-61
2023/12/28 08:51:22;;;;;;;15.20;5.80;;;;;;;3.02;100.00;99083.58;109184;1257;57792;-62
2023/12/28 08:54:09;;;;;;;16.90;6.80;;;;;;;3.09;100.00;99089.18;109094;1257;61438;-63
2023/12/28 08:56:57;;;;;;;16.50;7.10;;;;;;;3.14;100.00;99092.16;109194;1257;72944;-61
2023/12/28 08:59:46;;;;;;;17.60;7.00;;;;;;;3.19;100.00;99092.39;109050;1257;66690;-60
2023/12/28 09:02:34;;;;;;;13.60;5.60;;;;;;;3.22;100.00;99091.95;109060;1257;73444;-60
2023/12/28 09:05:22;;;;;;;17.90;6.20;;;;;;;3.28;100.00;99091.32;108998;1257;57835;-61
2023/12/28 09:08:10;;;;;;;14.90;6.40;;;;;;;3.32;100.00;99081.01;109181;1257;60113;-61
2023/12/28 09:10:57;;;;;;;13.70;5.80;;;;;;;3.37;100.00;99081.79;109170;1256;71828;-61
2023/12/28 09:13:45;;;;;;;14.90;6.00;;;;;;;3.43;100.00;99075.08;109103;1256;66644;-61
2023/12/28 09:16:33;;;;;;;13.60;5.80;;;;;;;3.48;100.00;99072.14;109100;1257;71301;-61
2023/12/28 09:19:21;;;;;;;15.50;6.50;;;;;;;3.53;100.00;99077.95;109166;1257;58412;-61
2023/12/28 09:22:09;;;;;;;13.30;6.40;;;;;;;3.56;100.00;99071.91;108988;1257;60033;-61
2023/12/28 09:24:57;;;;;;;14.90;6.40;;;;;;;3.63;100.00;99067.31;109070;1257;71514;-64
2023/12/28 09:27:45;;;;;;;12.80;5.90;;;;;;;3.68;100.00;99066.28;109148;1257;66642;-62
2023/12/28 09:30:32;;;;;;;15.10;6.30;;;;;;;3.69;100.00;99075.50;109020;1256;73325;-62
2023/12/28 09:33:21;;;;;;;12.90;5.50;;;;;;;3.70;100.00;99076.53;109031;1257;58015;-61
2023/12/28 09:36:12;;;;;;;16.30;6.90;;;;;;;3.70;100.00;99082.33;108971;1257;60201;-60
2023/12/28 09:39:01;;;;;;;14.20;6.00;;;;;;;3.72;100.00;99080.55;108984;1256;74303;-62
2023/12/28 09:42:06;;;;;;;15.60;7.40;;;;;;;3.77;100.00;99076.42;109031;1259;66682;-61
2023/12/28 09:44:54;;;;;;;14.60;6.70;;;;;;;3.85;100.00;99062.92;108954;1259;72704;-60
2023/12/28 09:47:43;;;;;;;15.50;7.40;;;;;;;3.92;100.00;99058.40;108985;1259;60319;-62
2023/12/28 09:50:32;;;;;;;16.70;7.90;;;;;;;3.98;100.00;99053.29;108982;1259;61091;-61
2023/12/28 09:53:29;;;;;;;16.30;7.40;;;;;;;4.00;100.00;99054.17;109013;1259;71769;-62
2023/12/28 09:56:16;;;;;;;21.80;8.10;;;;;;;4.01;100.00;99044.29;108997;1259;69414;-63
2023/12/28 09:59:05;;;;;;;19.40;8.50;;;;;;;4.03;100.00;99037.45;108988;1259;73408;-61
2023/12/28 10:01:55;;;;;;;14.80;7.40;;;;;;;4.10;100.00;99042.66;108948;1259;58356;-62
2023/12/28 10:04:43;;;;;;;17.40;8.50;;;;;;;4.12;100.00;99045.67;108868;1259;59142;-62
2023/12/28 10:07:31;;;;;;;18.90;8.40;;;;;;;4.18;100.00;99047.71;109078;1259;73110;-62
2023/12/28 10:10:20;;;;;;;18.50;7.50;;;;;;;4.22;100.00;99054.29;108924;1259;67851;-62
2023/12/28 10:13:10;;;;;;;24.40;8.20;;;;;;;4.25;100.00;99055.53;109023;1259;73639;-61
2023/12/28 10:15:59;;;;;;;17.20;7.10;;;;;;;4.30;100.00;99051.29;108895;1262;59368;-63
2023/12/28 10:18:46;;;;;;;16.60;7.50;;;;;;;4.36;100.00;99047.06;108979;1259;61330;-63
2023/12/28 10:21:34;;;;;;;16.20;7.90;;;;;;;4.43;100.00;99044.08;109003;1259;73105;-61
2023/12/28 10:24:22;;;;;;;13.90;6.90;;;;;;;4.45;100.00;99037.30;109066;1259;68940;-62
2023/12/28 10:27:10;;;;;;;16.80;7.20;;;;;;;4.46;100.00;99041.43;109002;1259;71283;-61
2023/12/28 10:29:58;;;;;;;16.90;7.40;;;;;;;4.48;100.00;99043.96;108999;1259;58132;-62
2023/12/28 10:32:46;;;;;;;16.60;7.30;;;;;;;4.52;100.00;99045.98;109051;1259;60086;-62
2023/12/28 10:35:35;;;;;;;16.80;7.70;;;;;;;4.55;100.00;99036.45;108999;1259;73687;-63
2023/12/28 10:38:25;;;;;;;15.00;6.60;;;;;;;4.57;100.00;99034.73;109009;1259;68910;-61
2023/12/28 10:41:14;;;;;;;15.20;6.80;;;;;;;4.60;100.00;99038.02;109001;1259;72553;-63
2023/12/28 10:44:05;;;;;;;16.30;7.20;;;;;;;4.64;100.00;99034.23;108958;1259;57355;-62
2023/12/28 10:47:01;;;;;;;18.00;7.30;;;;;;;4.69;100.00;99031.78;108944;1259;61012;-62
2023/12/28 10:49:53;;;;;;;16.20;7.10;;;;;;;4.84;100.00;99026.50;109055;1260;71930;-62
2023/12/28 10:52:50;;;;;;;13.20;6.10;;;;;;;5.26;100.00;99020.75;109043;1259;67572;-61
2023/12/28 10:56:03;;;;;;;15.70;7.30;;;;;;;5.36;100.00;99039.37;108954;1259;71635;-60
2023/12/28 10:59:18;;;;;;;19.90;6.30;;;;;;;5.26;100.00;99037.09;108958;1259;60058;-62
2023/12/28 11:02:08;;;;;;;20.00;7.60;;;;;;;5.14;100.00;99038.63;109000;1259;59399;-61
2023/12/28 11:04:56;;;;;;;22.80;7.10;;;;;;;5.05;100.00;99036.98;109055;1259;72021;-62
2023/12/28 11:07:47;;;;;;;16.50;7.40;;;;;;;4.97;100.00;99037.06;108938;1259;68319;-63
2023/12/28 11:10:36;;;;;;;20.10;8.40;;;;;;;4.91;100.00;99044.86;108965;1257;72807;-62
2023/12/28 11:13:24;;;;;;;16.00;7.70;;;;;;;4.92;100.00;99043.90;109010;1257;59179;-63
2023/12/28 11:16:13;;;;;;;20.70;8.60;;;;;;;4.93;100.00;99048.54;109184;1257;60361;-63
2023/12/28 11:19:02;;;;;;;17.70;7.40;;;;;;;5.00;100.00;99038.59;109147;1257;71615;-62
2023/12/28 11:21:51;;;;;;;16.90;7.60;;;;;;;5.08;100.00;99028.66;109179;1257;68458;-63
2023/12/28 11:24:39;;;;;;;13.00;6.50;;;;;;;5.24;100.00;99025.10;108985;1257;72593;-63
2023/12/28 11:27:37;;;;;;;17.00;7.60;;;;;;;5.70;100.00;99023.15;107449;1257;1002679;-63
2023/12/28 11:30:28;;;;;;;14.50;6.50;;;;;;;6.32;100.00;99020.64;109038;1257;60199;-63
2023/12/28 11:33:17;;;;;;;15.00;6.60;;;;;;;6.99;100.00;99013.02;109084;1257;71879;-61
2023/12/28 11:36:09;;;;;;;15.50;6.80;;;;;;;7.45;98.85;99005.58;109128;1257;66924;-62
2023/12/28 11:39:01;;;;;;;14.80;6.40;;;;;;;8.08;96.63;99000.84;109078;1257;71441;-62
2023/12/28 11:41:50;;;;;;;13.60;6.10;;;;;;;8.43;92.96;99006.33;109109;1257;59511;-62
2023/12/28 11:44:46;;;;;;;14.50;5.60;;;;;;;8.17;92.75;99007.28;109065;1260;61295;-61
2023/12/28 11:47:34;;;;;;;11.90;5.60;;;;;;;7.90;93.53;99013.94;109017;1257;72758;-62
2023/12/28 11:50:22;;;;;;;15.30;5.90;;;;;;;7.53;94.60;99009.38;109054;1257;68846;-62
2023/12/28 11:53:12;;;;;;;12.60;5.70;;;;;;;7.72;94.54;99004.28;109142;1257;73808;-62
2023/12/28 11:56:05;;;;;;;12.10;5.10;;;;;;;8.40;93.28;98997.55;109068;1257;60304;-62
2023/12/28 11:58:53;;;;;;;13.10;5.10;;;;;;;8.71;90.31;98989.08;109160;1260;58893;-63
2023/12/28 12:01:41;;;;;;;11.50;4.60;;;;;;;8.55;89.89;98991.00;109140;1257;72983;-64
2023/12/28 12:04:29;;;;;;;12.60;4.90;;;;;;;8.26;89.63;98994.64;108991;1257;66994;-62
2023/12/28 12:07:17;;;;;;;11.80;5.70;;;;;;;7.85;91.91;98988.06;108992;1257;73470;-65
2023/12/28 12:10:06;;;;;;;10.30;4.60;;;;;;;7.64;93.12;98982.86;108977;1257;57987;-62
2023/12/28 12:12:54;;;;;;;11.40;4.90;;;;;;;7.35;94.81;98979.59;109144;1257;60753;-61
2023/12/28 12:15:42;;;;;;;11.30;4.70;;;;;;;7.13;95.98;98978.40;109173;1257;72953;-63
2023/12/28 12:18:30;;;;;;;11.40;4.20;;;;;;;6.87;97.62;98979.03;109088;1257;66774;-63
2023/12/28 12:21:18;;;;;;;14.40;5.00;;;;;;;6.70;98.93;98986.38;109101;1257;72436;-62
2023/12/28 12:24:06;;;;;;;10.60;4.00;;;;;;;6.53;99.91;98991.58;109152;1257;59322;-62
2023/12/28 12:26:54;;;;;;;10.00;5.00;;;;;;;6.53;100.00;98988.44;109080;1257;61782;-61
2023/12/28 12:29:42;;;;;;;11.10;3.90;;;;;;;6.54;100.00;98994.29;109057;1257;74066;-61
2023/12/28 12:32:31;;;;;;;12.50;4.50;;;;;;;6.57;100.00;98991.41;107440;1257;1002453;-61
2023/12/28 12:35:21;;;;;;;10.00;3.60;;;;;;;6.64;100.00;98988.74;109103;1257;72588;-63
2023/12/28 12:38:09;;;;;;;11.30;3.90;;;;;;;6.59;100.00;98982.80;109051;1257;60594;-61
2023/12/28 12:40:57;;;;;;;12.70;4.60;;;;;;;6.60;100.00;98975.33;109103;1257;61239;-63
2023/12/28 12:43:45;;;;;;;11.70;4.30;;;;;;;6.64;100.00;98970.23;109107;1257;71696;-63
2023/12/28 12:46:33;;;;;;;12.00;4.20;;;;;;;6.58;100.00;98963.54;109061;1257;68538;-62
2023/12/28 12:49:21;;;;;;;9.20;3.90;;;;;;;6.55;100.00;98973.26;109048;1257;73782;-62
2023/12/28 12:52:09;;;;;;;9.20;4.00;;;;;;;6.55;100.00;98973.96;109073;1257;57666;-63
2023/12/28 12:54:58;;;;;;;8.30;3.60;;;;;;;6.53;100.00;98975.73;108918;1257;60332;-62
2023/12/28 12:57:46;;;;;;;10.10;3.80;;;;;;;6.49;100.00;98976.02;109165;1257;71885;-61